createdAt,value
2022-11-20T00:01:31.259Z,67.07
2022-11-20T00:03:59.352Z,64.93
2022-11-20T00:06:28.139Z,61.60
2022-11-20T00:08:57.791Z,58.17
2022-11-20T00:11:26.356Z,55.53
2022-11-20T00:13:56.123Z,53.50
2022-11-20T00:16:25.754Z,52.27
2022-11-20T00:18:53.292Z,55.03
2022-11-20T00:21:22.507Z,62.03
2022-11-20T00:23:50.314Z,71.67
2022-11-20T00:26:19.757Z,67.93
2022-11-20T00:28:52.777Z,58.50
2022-11-20T00:31:23.128Z,54.33
2022-11-20T00:33:50.882Z,57.33
2022-11-20T00:36:20.928Z,53.40
2022-11-20T00:38:48.373Z,51.33
2022-11-20T00:41:16.947Z,51.97
2022-11-20T00:43:44.646Z,62.37
2022-11-20T00:46:17.148Z,69.80
2022-11-20T00:48:44.858Z,58.67
2022-11-20T00:51:16.840Z,55.83
2022-11-20T00:53:44.896Z,57.20
2022-11-20T00:56:15.393Z,57.40
2022-11-20T00:58:44.556Z,55.00
2022-11-20T01:01:25.621Z,55.57
2022-11-20T01:03:55.041Z,66.30
2022-11-20T01:06:25.093Z,64.50
2022-11-20T01:08:54.834Z,74.87
2022-11-20T01:11:25.270Z,61.53
2022-11-20T01:13:54.037Z,58.73
2022-11-20T01:16:30.371Z,60.90
2022-11-20T01:18:59.659Z,61.70
2022-11-20T01:21:29.922Z,58.83
2022-11-20T01:23:57.942Z,87.37
2022-11-20T01:26:27.992Z,69.23
2022-11-20T01:28:56.301Z,63.00
2022-11-20T01:31:33.762Z,58.30
2022-11-20T01:34:07.103Z,58.67
2022-11-20T01:36:36.960Z,57.43
2022-11-20T01:39:08.807Z,54.83
2022-11-20T01:41:54.799Z,59.50
2022-11-20T01:44:43.198Z,57.27
2022-11-20T01:47:13.380Z,55.50
2022-11-20T01:50:01.243Z,54.87
2022-11-20T01:52:37.657Z,56.37
2022-11-20T01:55:16.004Z,56.70
2022-11-20T01:57:45.351Z,57.53
2022-11-20T02:00:16.190Z,55.23
2022-11-20T02:02:48.822Z,61.93
2022-11-20T02:05:30.007Z,59.67
2022-11-20T02:07:59.019Z,57.13
2022-11-20T02:10:28.151Z,59.20
2022-11-20T02:13:14.574Z,57.27
2022-11-20T02:15:42.027Z,63.73
2022-11-20T02:18:10.636Z,67.37
2022-11-20T02:20:38.404Z,63.13
2022-11-20T02:23:13.724Z,68.70
2022-11-20T02:25:42.466Z,90.47
2022-11-20T02:28:09.794Z,86.13
2022-11-20T02:30:37.087Z,79.07
2022-11-20T02:33:04.232Z,74.13
2022-11-20T02:35:31.257Z,73.87
2022-11-20T02:38:02.349Z,71.93
2022-11-20T02:40:30.436Z,70.53
2022-11-20T02:42:58.341Z,77.03
2022-11-20T02:45:26.309Z,83.33
2022-11-20T02:47:53.561Z,84.43
2022-11-20T02:50:21.357Z,78.07
2022-11-20T02:52:48.544Z,67.87
2022-11-20T02:55:15.770Z,61.50
2022-11-20T02:57:42.849Z,60.00
2022-11-20T03:00:10.780Z,57.97
2022-11-20T03:02:38.223Z,53.83
2022-11-20T03:05:05.540Z,51.53
2022-11-20T03:07:32.781Z,50.27
2022-11-20T03:09:59.995Z,50.83
2022-11-20T03:12:27.019Z,51.10
2022-11-20T03:14:54.039Z,50.73
2022-11-20T03:17:21.699Z,64.10
2022-11-20T03:19:48.749Z,65.03
2022-11-20T03:22:16.196Z,60.10
2022-11-20T03:24:43.217Z,59.97
2022-11-20T03:27:10.249Z,59.13
2022-11-20T03:29:37.636Z,59.37
2022-11-20T03:32:04.808Z,59.17
2022-11-20T03:34:31.882Z,54.10
2022-11-20T03:36:58.954Z,51.77
2022-11-20T03:39:26.066Z,53.60
2022-11-20T03:41:53.196Z,53.73
2022-11-20T03:44:23.098Z,52.30
2022-11-20T03:46:50.201Z,52.17
2022-11-20T03:49:17.365Z,46.57
2022-11-20T03:51:44.933Z,45.27
2022-11-20T03:54:12.057Z,48.83
2022-11-20T03:56:40.956Z,50.63
2022-11-20T03:59:08.333Z,50.00
2022-11-20T04:01:38.636Z,48.10
2022-11-20T04:04:05.988Z,51.17
2022-11-20T04:06:38.375Z,50.60
2022-11-20T04:09:06.559Z,53.00
2022-11-20T04:11:36.568Z,51.30
2022-11-20T04:14:06.128Z,52.07
2022-11-20T04:16:35.393Z,52.03
2022-11-20T04:19:04.553Z,55.97
2022-11-20T04:21:31.693Z,56.23
2022-11-20T04:23:59.316Z,53.47
2022-11-20T04:26:28.598Z,52.77
2022-11-20T04:28:56.121Z,53.37
2022-11-20T04:31:25.959Z,50.20
2022-11-20T04:33:53.167Z,48.67
2022-11-20T04:36:25.499Z,50.03
2022-11-20T04:38:57.003Z,50.47
2022-11-20T04:41:26.494Z,52.87
2022-11-20T04:44:00.800Z,53.27
2022-11-20T04:46:29.139Z,52.33
2022-11-20T04:48:56.723Z,53.57
2022-11-20T04:51:24.316Z,52.23
2022-11-20T04:53:51.511Z,52.07
2022-11-20T04:56:18.862Z,50.40
2022-11-20T04:58:45.965Z,51.67
2022-11-20T05:01:21.982Z,50.17
2022-11-20T05:03:49.621Z,49.53
2022-11-20T05:06:19.047Z,49.27
2022-11-20T05:08:46.309Z,51.67
2022-11-20T05:11:16.891Z,49.77
2022-11-20T05:13:44.219Z,51.50
2022-11-20T05:16:17.145Z,49.57
2022-11-20T05:18:44.950Z,49.53
2022-11-20T05:21:13.086Z,49.57
2022-11-20T05:23:40.697Z,54.80
2022-11-20T05:26:13.160Z,56.50
2022-11-20T05:28:40.276Z,50.77
2022-11-20T05:31:08.374Z,50.00
2022-11-20T05:33:36.947Z,53.30
2022-11-20T05:36:05.449Z,57.03
2022-11-20T05:38:33.091Z,64.90
2022-11-20T05:41:18.088Z,70.90
2022-11-20T05:43:48.736Z,72.63
2022-11-20T05:46:19.622Z,47.97
2022-11-20T05:48:49.563Z,64.17
2022-11-20T05:51:19.411Z,54.83
2022-11-20T05:53:48.823Z,51.00
2022-11-20T05:56:19.665Z,51.40
2022-11-20T05:58:47.264Z,55.80
2022-11-20T06:01:25.814Z,55.87
2022-11-20T06:03:53.833Z,59.37
2022-11-20T06:06:21.957Z,58.33
2022-11-20T06:08:49.890Z,58.80
2022-11-20T06:11:18.335Z,57.13
2022-11-20T06:13:46.039Z,59.00
2022-11-20T06:16:15.362Z,75.50
2022-11-20T06:18:42.643Z,73.53
2022-11-20T06:21:15.872Z,96.10
2022-11-20T06:23:43.975Z,87.37
2022-11-20T06:26:24.260Z,76.90
2022-11-20T06:28:52.335Z,83.83
2022-11-20T06:31:24.343Z,81.37
2022-11-20T06:33:52.559Z,78.93
2022-11-20T06:36:23.163Z,90.90
2022-11-20T06:38:50.847Z,104.90
2022-11-20T06:41:21.566Z,88.97
2022-11-20T06:43:49.153Z,71.10
2022-11-20T06:46:20.426Z,69.57
2022-11-20T06:48:49.400Z,67.73
2022-11-20T06:51:17.290Z,59.97
2022-11-20T06:53:44.577Z,55.23
2022-11-20T06:56:11.748Z,56.00
2022-11-20T06:58:39.076Z,57.10
2022-11-20T07:01:10.183Z,56.20
2022-11-20T07:03:37.863Z,59.97
2022-11-20T07:06:08.010Z,62.30
2022-11-20T07:08:36.584Z,66.77
2022-11-20T07:11:06.502Z,65.80
2022-11-20T07:13:34.017Z,63.83
2022-11-20T07:16:04.059Z,60.47
2022-11-20T07:18:31.556Z,58.30
2022-11-20T07:21:05.543Z,58.73
2022-11-20T07:23:32.750Z,56.93
2022-11-20T07:26:03.802Z,61.73
2022-11-20T07:28:30.877Z,87.13
2022-11-20T07:30:58.015Z,87.63
2022-11-20T07:33:25.420Z,67.93
2022-11-20T07:35:52.475Z,59.13
2022-11-20T07:38:19.800Z,47.77
2022-11-20T07:40:47.394Z,65.33
2022-11-20T07:43:14.603Z,50.60
2022-11-20T07:45:42.117Z,46.27
2022-11-20T07:48:09.261Z,51.47
2022-11-20T07:50:36.287Z,57.13
2022-11-20T07:53:07.004Z,51.87
2022-11-20T07:55:37.472Z,66.20
2022-11-20T07:58:04.820Z,74.77
2022-11-20T08:00:32.326Z,60.10
2022-11-20T08:03:00.222Z,57.10
2022-11-20T08:05:27.373Z,81.90
2022-11-20T08:07:54.413Z,75.13
2022-11-20T08:10:22.037Z,55.97
2022-11-20T08:13:12.462Z,71.13
2022-11-20T08:15:41.411Z,75.30
2022-11-20T08:21:02.698Z,56.47
2022-11-20T08:23:29.882Z,55.03
2022-11-20T08:25:57.022Z,67.40
2022-11-20T08:28:24.433Z,63.67
2022-11-20T08:30:51.827Z,64.67
2022-11-20T08:33:21.796Z,87.83
2022-11-20T08:35:48.883Z,72.20
2022-11-20T08:38:15.973Z,55.30
2022-11-20T08:41:03.752Z,62.83
2022-11-20T08:43:30.932Z,57.47
2022-11-20T08:45:58.683Z,51.63
2022-11-20T08:48:25.890Z,42.10
2022-11-20T08:50:52.927Z,44.50
2022-11-20T08:53:20.959Z,34.97
2022-11-20T08:55:48.118Z,52.43
2022-11-20T08:58:15.219Z,44.03
2022-11-20T09:00:42.358Z,36.23
2022-11-20T09:03:11.135Z,29.27
2022-11-20T09:05:38.597Z,25.40
2022-11-20T09:08:05.749Z,26.00
2022-11-20T09:10:33.489Z,22.57
2022-11-20T09:13:00.736Z,29.70
2022-11-20T09:15:27.917Z,28.37
2022-11-20T09:17:56.437Z,26.77
2022-11-20T09:20:23.773Z,29.53
2022-11-20T09:22:51.065Z,28.70
2022-11-20T09:25:18.575Z,24.90
2022-11-20T09:27:47.512Z,42.93
2022-11-20T09:30:16.230Z,34.63
2022-11-20T09:32:44.223Z,29.30
2022-11-20T09:35:12.262Z,27.40
2022-11-20T09:37:39.729Z,30.63
2022-11-20T09:40:08.040Z,23.53
2022-11-20T09:42:48.788Z,31.87
2022-11-20T09:45:23.311Z,23.80
2022-11-20T09:48:00.467Z,27.07
2022-11-20T09:50:34.627Z,24.43
2022-11-20T09:53:36.960Z,22.33
2022-11-20T09:56:11.783Z,22.47
2022-11-20T09:58:50.269Z,21.30
2022-11-20T10:01:30.679Z,24.33
2022-11-20T10:04:04.138Z,34.77
2022-11-20T10:06:34.951Z,32.23
2022-11-20T10:09:12.402Z,35.60
2022-11-20T10:12:07.439Z,29.33
2022-11-20T10:15:02.989Z,38.13
2022-11-20T10:17:54.229Z,24.93
2022-11-20T10:20:31.959Z,30.37
2022-11-20T10:23:33.763Z,21.30
2022-11-20T10:26:24.280Z,22.20
2022-11-20T10:29:10.002Z,18.23
2022-11-20T10:31:44.418Z,20.87
2022-11-20T10:34:22.948Z,19.77
2022-11-20T10:37:31.356Z,17.20
2022-11-20T10:40:26.222Z,18.90
2022-11-20T10:43:00.693Z,14.33
2022-11-20T10:45:30.434Z,14.17
2022-11-20T10:48:18.034Z,13.50
2022-11-20T10:51:13.875Z,21.07
2022-11-20T10:54:07.662Z,17.27
2022-11-20T10:56:49.502Z,23.40
2022-11-20T10:59:50.680Z,21.90
2022-11-20T11:02:23.375Z,15.60
2022-11-20T11:04:56.108Z,29.63
2022-11-20T11:07:29.268Z,19.80
2022-11-20T11:09:58.220Z,19.07
2022-11-20T11:12:28.529Z,27.07
2022-11-20T11:14:57.595Z,19.17
2022-11-20T11:17:30.766Z,17.57
2022-11-20T11:20:13.120Z,13.50
2022-11-20T11:22:49.901Z,15.43
2022-11-20T11:25:37.063Z,17.97
2022-11-20T11:28:20.881Z,13.30
2022-11-20T11:30:51.625Z,22.83
2022-11-20T11:33:29.870Z,14.07
2022-11-20T11:36:01.173Z,16.40
2022-11-20T11:38:38.602Z,15.43
2022-11-20T11:41:08.415Z,15.27
2022-11-20T11:43:56.575Z,15.57
2022-11-20T11:46:33.937Z,21.03
2022-11-20T11:49:09.921Z,23.20
2022-11-20T11:52:25.335Z,29.23
2022-11-20T11:54:58.310Z,16.33
2022-11-20T11:57:41.038Z,18.27
2022-11-20T12:00:20.851Z,20.27
2022-11-20T12:02:50.981Z,25.30
2022-11-20T12:05:26.270Z,23.77
2022-11-20T12:07:57.169Z,23.77
2022-11-20T12:10:55.193Z,30.87
2022-11-20T12:13:34.696Z,21.43
2022-11-20T12:16:05.940Z,23.97
2022-11-20T12:18:33.370Z,19.23
2022-11-20T12:21:20.008Z,16.60
2022-11-20T12:23:53.010Z,17.80
2022-11-20T12:26:40.299Z,19.57
2022-11-20T12:29:29.433Z,21.80
2022-11-20T12:32:33.877Z,23.60
2022-11-20T12:35:30.266Z,17.80
2022-11-20T12:38:24.815Z,20.33
2022-11-20T12:41:47.649Z,27.30
2022-11-20T12:45:01.262Z,20.27
2022-11-20T12:47:50.386Z,21.83
2022-11-20T12:51:14.640Z,22.50
2022-11-20T12:54:07.161Z,19.97
2022-11-20T12:56:43.802Z,21.43
2022-11-20T12:59:49.397Z,51.37
2022-11-20T13:02:24.902Z,21.20
2022-11-20T13:05:04.195Z,19.40
2022-11-20T13:07:33.412Z,73.40
2022-11-20T13:10:01.373Z,76.70
2022-11-20T13:12:42.268Z,33.10
2022-11-20T13:15:34.001Z,30.57
2022-11-20T13:18:04.111Z,20.00
2022-11-20T13:20:32.651Z,22.10
2022-11-20T13:23:00.206Z,18.83
2022-11-20T13:25:31.272Z,27.33
2022-11-20T13:28:02.935Z,20.47
2022-11-20T13:30:31.671Z,23.17
2022-11-20T13:33:09.507Z,43.70
2022-11-20T13:35:41.752Z,28.67
2022-11-20T13:38:11.728Z,23.47
2022-11-20T13:40:52.151Z,21.43
2022-11-20T13:43:29.992Z,19.83
2022-11-20T13:46:03.564Z,20.00
2022-11-20T13:48:43.680Z,22.70
2022-11-20T13:51:38.784Z,19.57
2022-11-20T13:54:52.807Z,24.47
2022-11-20T13:57:47.676Z,24.70
2022-11-20T14:00:26.463Z,24.40
2022-11-20T14:03:44.213Z,72.37
2022-11-20T14:06:32.761Z,65.00
2022-11-20T14:09:01.199Z,212.97
2022-11-20T14:11:32.782Z,70.63
2022-11-20T14:14:05.736Z,71.30
2022-11-20T14:16:38.970Z,44.67
2022-11-20T14:19:21.346Z,32.30
2022-11-20T14:21:49.811Z,33.70
2022-11-20T14:24:26.126Z,73.53
2022-11-20T14:26:54.032Z,65.60
2022-11-20T14:29:29.118Z,69.70
2022-11-20T14:32:00.517Z,54.17
2022-11-20T14:34:30.499Z,45.07
2022-11-20T14:37:03.247Z,38.03
2022-11-20T14:39:38.665Z,55.20
2022-11-20T14:42:18.230Z,86.47
2022-11-20T14:44:45.926Z,78.27
2022-11-20T14:47:16.598Z,36.37
2022-11-20T14:49:44.602Z,31.50
2022-11-20T14:52:23.465Z,21.20
2022-11-20T14:55:03.116Z,31.20
2022-11-20T14:57:36.087Z,40.23
2022-11-20T15:00:15.152Z,41.00
2022-11-20T15:02:50.621Z,43.67
2022-11-20T15:05:20.853Z,50.67
2022-11-20T15:08:15.175Z,52.00
2022-11-20T15:10:53.304Z,94.27
2022-11-20T15:13:31.306Z,158.93
2022-11-20T15:16:01.602Z,99.37
2022-11-20T15:18:30.502Z,57.10
2022-11-20T15:21:02.060Z,50.37
2022-11-20T15:23:30.216Z,62.63
2022-11-20T15:25:57.706Z,61.93
2022-11-20T15:28:34.476Z,78.03
2022-11-20T15:31:03.414Z,121.53
2022-11-20T15:33:31.307Z,135.77
2022-11-20T15:35:58.702Z,147.00
2022-11-20T15:38:25.838Z,120.10
2022-11-20T15:40:53.264Z,87.63
2022-11-20T15:43:20.681Z,59.27
2022-11-20T15:45:54.227Z,101.90
2022-11-20T15:48:26.204Z,104.13
2022-11-20T15:50:57.048Z,67.73
2022-11-20T15:53:24.263Z,57.67
2022-11-20T15:55:51.575Z,52.93
2022-11-20T15:58:18.807Z,62.90
2022-11-20T16:00:46.151Z,65.63
2022-11-20T16:03:15.518Z,74.40
2022-11-20T16:05:44.202Z,78.23
2022-11-20T16:08:12.167Z,83.03
2022-11-20T16:10:40.712Z,76.63
2022-11-20T16:13:37.266Z,82.83
2022-11-20T16:16:12.770Z,54.27
2022-11-20T16:18:39.802Z,59.37
2022-11-20T16:21:13.833Z,35.67
2022-11-20T16:23:43.752Z,41.60
2022-11-20T16:26:16.116Z,37.00
2022-11-20T16:28:43.599Z,46.67
2022-11-20T16:31:17.688Z,49.60
2022-11-20T16:33:51.350Z,56.77
2022-11-20T16:36:19.794Z,50.63
2022-11-20T16:38:50.999Z,46.33
2022-11-20T16:41:18.661Z,34.73
2022-11-20T16:43:51.570Z,29.03
2022-11-20T16:46:22.753Z,34.70
2022-11-20T16:48:57.605Z,134.50
2022-11-20T16:51:26.545Z,45.13
2022-11-20T16:53:56.817Z,55.53
2022-11-20T16:56:28.592Z,109.43
2022-11-20T16:59:00.684Z,93.13
2022-11-20T17:01:29.263Z,87.53
2022-11-20T17:04:05.360Z,88.17
2022-11-20T17:06:35.175Z,88.20
2022-11-20T17:09:03.594Z,95.63
2022-11-20T17:11:34.421Z,85.77
2022-11-20T17:14:05.055Z,86.27
2022-11-20T17:16:35.102Z,77.93
2022-11-20T17:19:03.931Z,91.30
2022-11-20T17:21:32.981Z,102.10
2022-11-20T17:24:05.802Z,110.60
2022-11-20T17:26:33.847Z,162.63
2022-11-20T17:29:07.133Z,145.83
2022-11-20T17:31:35.439Z,105.43
2022-11-20T17:34:05.308Z,98.93
2022-11-20T17:36:33.121Z,108.17
2022-11-20T17:39:01.406Z,117.03
2022-11-20T17:41:30.173Z,107.70
2022-11-20T17:44:01.937Z,109.20
2022-11-20T17:46:33.996Z,94.20
2022-11-20T17:49:02.371Z,101.83
2022-11-20T17:51:32.332Z,72.00
2022-11-20T17:54:02.168Z,50.20
2022-11-20T17:56:55.112Z,35.10
2022-11-20T17:59:23.717Z,33.33
2022-11-20T18:01:52.357Z,32.67
2022-11-20T18:04:19.641Z,78.83
2022-11-20T18:06:49.535Z,35.30
2022-11-20T18:09:18.728Z,38.43
2022-11-20T18:11:46.012Z,67.17
2022-11-20T18:14:35.044Z,83.00
2022-11-20T18:17:05.647Z,106.63
2022-11-20T18:19:40.433Z,84.67
2022-11-20T18:22:14.120Z,73.43
2022-11-20T18:24:42.330Z,121.60
2022-11-20T18:27:17.476Z,98.53
2022-11-20T18:29:46.452Z,97.23
2022-11-20T18:32:13.541Z,111.27
2022-11-20T18:34:41.577Z,103.03
2022-11-20T18:37:10.034Z,103.03
2022-11-20T18:39:38.095Z,96.33
2022-11-20T18:42:24.778Z,99.53
2022-11-20T18:44:52.907Z,93.90
2022-11-20T18:47:26.425Z,70.63
2022-11-20T18:49:58.812Z,39.93
2022-11-20T18:52:29.243Z,39.83
2022-11-20T18:54:57.078Z,40.07
2022-11-20T18:57:26.768Z,38.40
2022-11-20T19:00:03.480Z,37.20
2022-11-20T19:02:38.055Z,38.07
2022-11-20T19:05:09.390Z,39.20
2022-11-20T19:07:36.750Z,56.20
2022-11-20T19:10:05.713Z,113.80
2022-11-20T19:12:32.785Z,131.73
2022-11-20T19:15:00.151Z,201.17
2022-11-20T19:17:27.231Z,120.23
2022-11-20T19:19:57.055Z,219.10
2022-11-20T19:22:24.409Z,190.77
2022-11-20T19:24:51.910Z,165.03
2022-11-20T19:27:19.260Z,151.60
2022-11-20T19:29:46.457Z,151.00
2022-11-20T19:32:16.691Z,165.50
2022-11-20T19:34:44.997Z,150.53
2022-11-20T19:37:15.615Z,119.83
2022-11-20T19:39:42.632Z,115.10
2022-11-20T19:42:09.913Z,110.97
2022-11-20T19:44:37.600Z,124.17
2022-11-20T19:47:08.940Z,119.57
2022-11-20T19:49:40.485Z,112.07
2022-11-20T19:52:07.654Z,124.17
2022-11-20T19:54:34.748Z,118.40
2022-11-20T19:57:02.067Z,110.90
2022-11-20T19:59:29.145Z,94.03
2022-11-20T20:01:56.225Z,93.47
2022-11-20T20:04:23.624Z,113.83
2022-11-20T20:06:51.515Z,143.17
2022-11-20T20:09:18.891Z,182.83
2022-11-20T20:11:47.371Z,175.40
2022-11-20T20:14:16.268Z,172.47
2022-11-20T20:16:43.835Z,173.13
2022-11-20T20:19:17.116Z,165.77
2022-11-20T20:21:45.100Z,167.53
2022-11-20T20:24:12.628Z,164.13
2022-11-20T20:26:40.407Z,149.80
2022-11-20T20:29:07.787Z,130.53
2022-11-20T20:31:35.409Z,125.57
2022-11-20T20:34:05.551Z,121.37
2022-11-20T20:36:33.231Z,108.00
2022-11-20T20:39:00.352Z,77.53
2022-11-20T20:41:27.726Z,72.87
2022-11-20T20:44:14.109Z,83.70
2022-11-20T20:46:41.795Z,87.37
2022-11-20T20:49:09.587Z,87.73
2022-11-20T20:51:36.903Z,80.33
2022-11-20T20:54:04.893Z,76.60
2022-11-20T20:56:32.521Z,83.57
2022-11-20T20:58:59.672Z,87.00
2022-11-20T21:01:29.060Z,99.83
2022-11-20T21:03:57.579Z,99.67
2022-11-20T21:06:25.789Z,87.40
2022-11-20T21:08:53.216Z,67.37
2022-11-20T21:11:21.500Z,64.37
2022-11-20T21:13:50.089Z,57.80
2022-11-20T21:16:18.865Z,52.67
2022-11-20T21:18:46.618Z,50.43
2022-11-20T21:21:34.342Z,54.40
2022-11-20T21:24:02.979Z,56.93
2022-11-20T21:26:30.102Z,54.17
2022-11-20T21:28:58.245Z,50.97
2022-11-20T21:31:27.134Z,44.10
2022-11-20T21:33:56.078Z,43.90
2022-11-20T21:36:26.180Z,41.90
2022-11-20T21:38:57.476Z,38.33
2022-11-20T21:41:27.133Z,38.33
2022-11-20T21:44:29.533Z,37.57
2022-11-20T21:46:45.581Z,41.83
2022-11-20T21:49:13.686Z,94.90
2022-11-20T21:51:40.953Z,110.47
2022-11-20T21:54:10.054Z,97.30
2022-11-20T21:56:37.311Z,78.30
2022-11-20T21:59:04.637Z,83.53
2022-11-20T22:01:32.205Z,79.53
2022-11-20T22:04:01.928Z,74.27
2022-11-20T22:06:34.062Z,78.93
2022-11-20T22:09:03.019Z,81.17
2022-11-20T22:11:30.835Z,86.70
2022-11-20T22:14:16.998Z,70.57
2022-11-20T22:16:44.219Z,66.10
2022-11-20T22:19:11.482Z,75.47
2022-11-20T22:21:41.935Z,60.50
2022-11-20T22:24:13.023Z,63.77
2022-11-20T22:26:40.958Z,64.43
2022-11-20T22:29:11.258Z,63.07
2022-11-20T22:31:38.467Z,64.93
2022-11-20T22:34:05.665Z,65.17
2022-11-20T22:36:37.049Z,63.43
2022-11-20T22:39:05.460Z,66.30
2022-11-20T22:41:33.698Z,83.07
2022-11-20T22:44:03.515Z,107.57
2022-11-20T22:46:34.205Z,104.37
2022-11-20T22:49:04.729Z,98.20
2022-11-20T22:51:35.741Z,81.83
2022-11-20T22:54:03.851Z,71.47
2022-11-20T22:56:31.758Z,66.77
2022-11-20T22:58:59.116Z,67.90
2022-11-20T23:01:29.473Z,62.13
2022-11-20T23:04:01.500Z,64.93
2022-11-20T23:06:29.937Z,64.77
2022-11-20T23:08:57.275Z,62.87
2022-11-20T23:11:27.776Z,64.93
2022-11-20T23:13:58.465Z,65.00
2022-11-20T23:16:27.673Z,66.23
2022-11-20T23:18:56.430Z,65.93
2022-11-20T23:21:24.704Z,62.07
2022-11-20T23:23:54.505Z,73.27
2022-11-20T23:26:24.640Z,67.13
2022-11-20T23:28:54.497Z,72.70
2022-11-20T23:31:22.058Z,74.33
2022-11-20T23:33:50.136Z,87.40
2022-11-20T23:36:17.776Z,81.47
2022-11-20T23:38:45.075Z,74.73
2022-11-20T23:41:14.549Z,81.57
2022-11-20T23:43:42.630Z,98.67
2022-11-20T23:46:15.164Z,84.57
2022-11-20T23:48:45.359Z,76.00
2022-11-20T23:51:13.590Z,83.60
2022-11-20T23:53:41.537Z,89.17
2022-11-20T23:56:09.291Z,82.37
2022-11-20T23:58:38.609Z,82.33
